sensor_id;sensor_type;location;lat;lon;timestamp;pressure;altitude;pressure_sealevel;temperature;humidity
28428;BME280;15662;49.128;8.520;2023-05-09T00:02:08;100683.50;;;21.03;56.55
28428;BME280;15662;49.128;8.520;2023-05-09T00:04:35;100689.88;;;21.02;56.78
28428;BME280;15662;49.128;8.520;2023-05-09T00:07:04;100682.88;;;20.99;56.92
28428;BME280;15662;49.128;8.520;2023-05-09T00:09:32;100681.22;;;20.97;56.98
28428;BME280;15662;49.128;8.520;2023-05-09T00:12:00;100683.91;;;20.97;57.25
28428;BME280;15662;49.128;8.520;2023-05-09T00:14:29;100679.97;;;20.88;57.08
28428;BME280;15662;49.128;8.520;2023-05-09T00:16:57;100683.28;;;20.79;56.92
28428;BME280;15662;49.128;8.520;2023-05-09T00:19:25;100688.16;;;20.72;57.13
28428;BME280;15662;49.128;8.520;2023-05-09T00:21:53;100680.47;;;20.66;57.22
28428;BME280;15662;49.128;8.520;2023-05-09T00:24:21;100683.34;;;20.63;57.32
28428;BME280;15662;49.128;8.520;2023-05-09T00:26:49;100674.91;;;20.55;57.30
28428;BME280;15662;49.128;8.520;2023-05-09T00:29:16;100688.25;;;20.56;57.54
28428;BME280;15662;49.128;8.520;2023-05-09T00:31:44;100679.31;;;20.56;57.78
28428;BME280;15662;49.128;8.520;2023-05-09T00:34:12;100681.72;;;20.60;57.86
28428;BME280;15662;49.128;8.520;2023-05-09T00:36:40;100678.81;;;20.64;57.70
28428;BME280;15662;49.128;8.520;2023-05-09T00:39:08;100680.28;;;20.69;57.76
28428;BME280;15662;49.128;8.520;2023-05-09T00:41:36;100677.28;;;20.74;57.71
28428;BME280;15662;49.128;8.520;2023-05-09T00:44:04;100686.72;;;20.81;57.98
28428;BME280;15662;49.128;8.520;2023-05-09T00:46:32;100680.25;;;20.83;58.01
28428;BME280;15662;49.128;8.520;2023-05-09T00:49:00;100681.78;;;20.87;57.99
28428;BME280;15662;49.128;8.520;2023-05-09T00:51:28;100666.41;;;20.90;57.96
28428;BME280;15662;49.128;8.520;2023-05-09T00:53:57;100667.00;;;20.95;57.78
28428;BME280;15662;49.128;8.520;2023-05-09T00:56:25;100664.19;;;20.96;58.11
28428;BME280;15662;49.128;8.520;2023-05-09T00:58:53;100666.59;;;21.01;58.12
28428;BME280;15662;49.128;8.520;2023-05-09T01:01:22;100661.00;;;21.04;57.89
28428;BME280;15662;49.128;8.520;2023-05-09T01:03:51;100661.75;;;21.06;57.92
28428;BME280;15662;49.128;8.520;2023-05-09T01:20:17;100633.28;;;21.02;58.02
28428;BME280;15662;49.128;8.520;2023-05-09T01:22:59;100637.06;;;20.99;58.38
28428;BME280;15662;49.128;8.520;2023-05-09T01:25:47;100643.88;;;21.05;58.19
28428;BME280;15662;49.128;8.520;2023-05-09T01:31:16;100633.50;;;20.99;58.69
28428;BME280;15662;49.128;8.520;2023-05-09T01:33:47;100641.06;;;21.06;58.44
28428;BME280;15662;49.128;8.520;2023-05-09T01:36:17;100625.19;;;21.02;58.74
28428;BME280;15662;49.128;8.520;2023-05-09T01:38:49;100641.63;;;21.11;58.58
28428;BME280;15662;49.128;8.520;2023-05-09T01:41:18;100640.66;;;21.12;58.61
28428;BME280;15662;49.128;8.520;2023-05-09T01:43:49;100629.88;;;21.12;58.61
28428;BME280;15662;49.128;8.520;2023-05-09T01:46:20;100632.28;;;21.17;58.90
28428;BME280;15662;49.128;8.520;2023-05-09T01:48:49;100638.34;;;21.21;58.60
28428;BME280;15662;49.128;8.520;2023-05-09T01:51:19;100622.34;;;21.18;58.70
28428;BME280;15662;49.128;8.520;2023-05-09T01:53:49;100633.63;;;21.24;58.71
28428;BME280;15662;49.128;8.520;2023-05-09T01:56:20;100628.41;;;21.21;58.74
28428;BME280;15662;49.128;8.520;2023-05-09T01:58:50;100617.63;;;21.21;58.62
28428;BME280;15662;49.128;8.520;2023-05-09T02:01:20;100635.34;;;21.25;58.78
28428;BME280;15662;49.128;8.520;2023-05-09T02:03:50;100623.47;;;21.28;58.72
28428;BME280;15662;49.128;8.520;2023-05-09T02:06:22;100621.41;;;21.33;58.89
28428;BME280;15662;49.128;8.520;2023-05-09T02:08:50;100622.16;;;21.35;58.88
28428;BME280;15662;49.128;8.520;2023-05-09T02:11:19;100623.00;;;21.35;58.71
28428;BME280;15662;49.128;8.520;2023-05-09T02:13:47;100619.25;;;21.38;58.87
28428;BME280;15662;49.128;8.520;2023-05-09T02:16:15;100616.56;;;21.38;58.65
28428;BME280;15662;49.128;8.520;2023-05-09T02:18:43;100620.00;;;21.40;58.78
28428;BME280;15662;49.128;8.520;2023-05-09T02:21:11;100627.22;;;21.40;58.79
28428;BME280;15662;49.128;8.520;2023-05-09T02:23:39;100626.06;;;21.44;58.82
28428;BME280;15662;49.128;8.520;2023-05-09T02:26:07;100623.38;;;21.44;58.70
28428;BME280;15662;49.128;8.520;2023-05-09T02:28:35;100617.97;;;21.44;58.79
28428;BME280;15662;49.128;8.520;2023-05-09T02:31:05;100617.00;;;21.45;58.78
28428;BME280;15662;49.128;8.520;2023-05-09T02:33:38;100616.03;;;21.46;58.68
28428;BME280;15662;49.128;8.520;2023-05-09T02:36:09;100612.59;;;21.44;58.84
28428;BME280;15662;49.128;8.520;2023-05-09T02:38:40;100606.41;;;21.42;58.92
28428;BME280;15662;49.128;8.520;2023-05-09T02:41:13;100612.28;;;21.48;58.82
28428;BME280;15662;49.128;8.520;2023-05-09T02:43:41;100601.69;;;21.45;58.72
28428;BME280;15662;49.128;8.520;2023-05-09T02:46:09;100599.00;;;21.45;58.97
28428;BME280;15662;49.128;8.520;2023-05-09T02:48:37;100591.31;;;21.39;59.06
28428;BME280;15662;49.128;8.520;2023-05-09T02:51:05;100603.53;;;21.45;58.87
28428;BME280;15662;49.128;8.520;2023-05-09T02:53:33;100607.19;;;21.44;59.08
28428;BME280;15662;49.128;8.520;2023-05-09T02:56:01;100607.28;;;21.42;59.13
28428;BME280;15662;49.128;8.520;2023-05-09T02:58:28;100602.00;;;21.41;59.15
28428;BME280;15662;49.128;8.520;2023-05-09T03:00:57;100605.44;;;21.43;59.17
28428;BME280;15662;49.128;8.520;2023-05-09T03:03:25;100617.88;;;21.45;59.04
28428;BME280;15662;49.128;8.520;2023-05-09T03:05:53;100607.06;;;21.45;59.18
28428;BME280;15662;49.128;8.520;2023-05-09T03:08:21;100610.53;;;21.47;59.24
28428;BME280;15662;49.128;8.520;2023-05-09T03:10:48;100608.72;;;21.48;59.18
28428;BME280;15662;49.128;8.520;2023-05-09T03:13:17;100598.88;;;21.47;59.29
28428;BME280;15662;49.128;8.520;2023-05-09T03:15:45;100599.84;;;21.46;59.29
28428;BME280;15662;49.128;8.520;2023-05-09T03:18:13;100591.09;;;21.42;59.57
28428;BME280;15662;49.128;8.520;2023-05-09T03:20:41;100599.00;;;21.45;59.56
28428;BME280;15662;49.128;8.520;2023-05-09T03:23:09;100590.91;;;21.45;59.49
28428;BME280;15662;49.128;8.520;2023-05-09T03:25:37;100599.84;;;21.46;59.62
28428;BME280;15662;49.128;8.520;2023-05-09T03:28:07;100597.25;;;21.44;59.72
28428;BME280;15662;49.128;8.520;2023-05-09T03:30:35;100589.25;;;21.43;59.56
28428;BME280;15662;49.128;8.520;2023-05-09T03:33:05;100585.81;;;21.41;59.68
28428;BME280;15662;49.128;8.520;2023-05-09T03:35:33;100583.22;;;21.39;59.79
28428;BME280;15662;49.128;8.520;2023-05-09T03:38:01;100574.47;;;21.35;59.60
28428;BME280;15662;49.128;8.520;2023-05-09T03:40:29;100585.25;;;21.35;59.56
28428;BME280;15662;49.128;8.520;2023-05-09T03:43:05;100581.22;;;21.28;59.67
28428;BME280;15662;49.128;8.520;2023-05-09T03:45:33;100594.50;;;21.31;59.72
28428;BME280;15662;49.128;8.520;2023-05-09T03:48:03;100583.72;;;21.31;59.94
28428;BME280;15662;49.128;8.520;2023-05-09T03:50:36;100575.91;;;21.27;59.61
28428;BME280;15662;49.128;8.520;2023-05-09T03:53:04;100573.22;;;21.27;59.87
28428;BME280;15662;49.128;8.520;2023-05-09T03:55:32;100581.22;;;21.28;59.89
28428;BME280;15662;49.128;8.520;2023-05-09T03:58:00;100578.53;;;21.28;59.96
28428;BME280;15662;49.128;8.520;2023-05-09T04:00:28;100581.91;;;21.32;59.85
28428;BME280;15662;49.128;8.520;2023-05-09T04:03:04;100573.13;;;21.28;59.98
28428;BME280;15662;49.128;8.520;2023-05-09T04:05:39;100567.75;;;21.28;59.82
28428;BME280;15662;49.128;8.520;2023-05-09T04:08:13;100563.22;;;21.29;60.15
28428;BME280;15662;49.128;8.520;2023-05-09T04:10:41;100570.91;;;21.35;60.02
28428;BME280;15662;49.128;8.520;2023-05-09T04:13:08;100576.31;;;21.35;60.04
28428;BME280;15662;49.128;8.520;2023-05-09T04:15:38;100565.53;;;21.35;60.21
28428;BME280;15662;49.128;8.520;2023-05-09T04:18:06;100566.28;;;21.37;60.11
28428;BME280;15662;49.128;8.520;2023-05-09T04:20:36;100569.63;;;21.41;60.03
28428;BME280;15662;49.128;8.520;2023-05-09T04:23:04;100573.06;;;21.43;60.21
28428;BME280;15662;49.128;8.520;2023-05-09T04:25:32;100573.06;;;21.43;60.24
28428;BME280;15662;49.128;8.520;2023-05-09T04:28:02;100564.91;;;21.44;60.05
28428;BME280;15662;49.128;8.520;2023-05-09T04:30:30;100573.84;;;21.45;60.04
28428;BME280;15662;49.128;8.520;2023-05-09T04:32:59;100570.28;;;21.44;59.94
28428;BME280;15662;49.128;8.520;2023-05-09T04:35:28;100581.84;;;21.46;60.17
28428;BME280;15662;49.128;8.520;2023-05-09T04:37:56;100571.81;;;21.48;60.26
28428;BME280;15662;49.128;8.520;2023-05-09T04:40:26;100563.94;;;21.45;60.08
28428;BME280;15662;49.128;8.520;2023-05-09T04:42:58;100572.56;;;21.50;60.07
28428;BME280;15662;49.128;8.520;2023-05-09T04:45:29;100562.97;;;21.46;60.10
28428;BME280;15662;49.128;8.520;2023-05-09T04:47:59;100567.19;;;21.50;60.08
28428;BME280;15662;49.128;8.520;2023-05-09T04:50:28;100560.72;;;21.53;60.10
28428;BME280;15662;49.128;8.520;2023-05-09T04:52:56;100560.06;;;21.49;60.09
28428;BME280;15662;49.128;8.520;2023-05-09T04:55:24;100562.44;;;21.54;60.30
28428;BME280;15662;49.128;8.520;2023-05-09T04:57:53;100569.56;;;21.55;60.32
28428;BME280;15662;49.128;8.520;2023-05-09T05:00:21;100561.47;;;21.55;60.03
28428;BME280;15662;49.128;8.520;2023-05-09T05:02:51;100564.91;;;21.57;60.13
28428;BME280;15662;49.128;8.520;2023-05-09T05:05:19;100566.66;;;21.58;60.21
28428;BME280;15662;49.128;8.520;2023-05-09T05:07:53;100565.69;;;21.59;60.17
28428;BME280;15662;49.128;8.520;2023-05-09T05:10:27;100561.16;;;21.59;60.16
28428;BME280;15662;49.128;8.520;2023-05-09T05:13:03;100556.63;;;21.60;59.94
28428;BME280;15662;49.128;8.520;2023-05-09T05:15:33;100558.25;;;21.62;60.12
28428;BME280;15662;49.128;8.520;2023-05-09T05:18:01;100553.72;;;21.63;60.04
28428;BME280;15662;49.128;8.520;2023-05-09T05:20:33;100555.84;;;21.45;60.34
28428;BME280;15662;49.128;8.520;2023-05-09T05:23:03;100555.09;;;21.56;60.38
28428;BME280;15662;49.128;8.520;2023-05-09T05:25:33;100561.16;;;21.59;60.16
28428;BME280;15662;49.128;8.520;2023-05-09T05:28:02;100555.56;;;21.62;59.88
28428;BME280;15662;49.128;8.520;2023-05-09T05:30:31;100548.34;;;21.63;60.02
28428;BME280;15662;49.128;8.520;2023-05-09T05:33:03;100543.69;;;21.65;59.75
28428;BME280;15662;49.128;8.520;2023-05-09T05:35:31;100538.28;;;21.65;59.62
28428;BME280;15662;49.128;8.520;2023-05-09T05:37:59;100545.94;;;21.71;59.83
28428;BME280;15662;49.128;8.520;2023-05-09T05:40:26;100548.34;;;21.76;59.72
28428;BME280;15662;49.128;8.520;2023-05-09T05:42:55;100546.28;;;21.79;59.70
28428;BME280;15662;49.128;8.520;2023-05-09T05:45:24;100549.72;;;21.81;59.59
28428;BME280;15662;49.128;8.520;2023-05-09T05:47:54;100548.88;;;21.81;59.71
28428;BME280;15662;49.128;8.520;2023-05-09T05:50:23;100541.56;;;21.83;59.55
28428;BME280;15662;49.128;8.520;2023-05-09T05:52:52;100542.41;;;21.83;59.67
28428;BME280;15662;49.128;8.520;2023-05-09T05:55:22;100539.72;;;21.83;59.45
28428;BME280;15662;49.128;8.520;2023-05-09T05:57:52;100543.81;;;21.89;59.49
28428;BME280;15662;49.128;8.520;2023-05-09T06:00:20;100544.66;;;21.89;59.51
28428;BME280;15662;49.128;8.520;2023-05-09T06:02:58;100536.47;;;21.91;59.62
28428;BME280;15662;49.128;8.520;2023-05-09T06:05:44;100548.56;;;21.98;59.36
28428;BME280;15662;49.128;8.520;2023-05-09T06:08:13;100538.63;;;21.99;59.38
28428;BME280;15662;49.128;8.520;2023-05-09T06:10:41;100531.28;;;22.01;59.29
28428;BME280;15662;49.128;8.520;2023-05-09T06:13:11;100529.22;;;22.04;59.39
28428;BME280;15662;49.128;8.520;2023-05-09T06:15:43;100527.19;;;22.08;59.35
28428;BME280;15662;49.128;8.520;2023-05-09T06:18:11;100537.69;;;22.12;59.40
28428;BME280;15662;49.128;8.520;2023-05-09T06:20:39;100524.06;;;22.14;59.38
28428;BME280;15662;49.128;8.520;2023-05-09T06:23:09;100522.34;;;22.13;59.34
28428;BME280;15662;49.128;8.520;2023-05-09T06:25:37;100526.44;;;22.19;59.35
28428;BME280;15662;49.128;8.520;2023-05-09T06:28:06;100534.22;;;22.23;59.46
28428;BME280;15662;49.128;8.520;2023-05-09T06:30:35;100532.38;;;22.24;59.44
28428;BME280;15662;49.128;8.520;2023-05-09T06:33:03;100523.94;;;22.28;59.37
28428;BME280;15662;49.128;8.520;2023-05-09T06:35:32;100521.25;;;22.28;59.44
28428;BME280;15662;49.128;8.520;2023-05-09T06:38:00;100513.03;;;22.30;59.02
28428;BME280;15662;49.128;8.520;2023-05-09T06:40:28;100513.81;;;22.32;59.09
28428;BME280;15662;49.128;8.520;2023-05-09T06:42:58;100510.44;;;22.28;59.02
28428;BME280;15662;49.128;8.520;2023-05-09T06:45:28;100510.31;;;22.30;59.06
28428;BME280;15662;49.128;8.520;2023-05-09T06:47:58;100507.75;;;22.28;59.06
28428;BME280;15662;49.128;8.520;2023-05-09T06:50:28;100500.38;;;22.30;59.00
28428;BME280;15662;49.128;8.520;2023-05-09T06:52:59;100494.25;;;22.28;59.23
28428;BME280;15662;49.128;8.520;2023-05-09T06:55:28;100495.75;;;22.32;59.10
28428;BME280;15662;49.128;8.520;2023-05-09T06:57:56;100496.38;;;22.36;59.15
28428;BME280;15662;49.128;8.520;2023-05-09T07:00:24;100499.97;;;22.36;59.17
28428;BME280;15662;49.128;8.520;2023-05-09T07:02:52;100494.31;;;22.39;59.22
28428;BME280;15662;49.128;8.520;2023-05-09T07:05:20;100497.56;;;22.45;59.17
28428;BME280;15662;49.128;8.520;2023-05-09T07:07:47;100493.78;;;22.47;59.34
28428;BME280;15662;49.128;8.520;2023-05-09T07:10:16;100494.50;;;22.49;59.35
28428;BME280;15662;49.128;8.520;2023-05-09T07:12:46;100493.19;;;22.55;59.31
28428;BME280;15662;49.128;8.520;2023-05-09T07:15:14;100489.41;;;22.57;59.48
28428;BME280;15662;49.128;8.520;2023-05-09T07:17:57;100483.44;;;22.65;59.61
28428;BME280;15662;49.128;8.520;2023-05-09T07:20:27;100479.41;;;22.71;59.62
28428;BME280;15662;49.128;8.520;2023-05-09T07:22:56;100477.00;;;22.79;59.89
28428;BME280;15662;49.128;8.520;2023-05-09T07:25:27;100479.03;;;22.88;59.76
28428;BME280;15662;49.128;8.520;2023-05-09T07:27:54;100469.50;;;22.95;59.82
28428;BME280;15662;49.128;8.520;2023-05-09T07:30:22;100462.00;;;22.99;59.64
28428;BME280;15662;49.128;8.520;2023-05-09T07:32:52;100458.22;;;23.01;59.45
28428;BME280;15662;49.128;8.520;2023-05-09T07:35:21;100450.97;;;23.02;59.17
28428;BME280;15662;49.128;8.520;2023-05-09T07:37:49;100449.66;;;23.07;59.40
28428;BME280;15662;49.128;8.520;2023-05-09T07:40:20;100447.66;;;23.09;59.28
28428;BME280;15662;49.128;8.520;2023-05-09T07:42:54;100443.53;;;23.16;59.21
28428;BME280;15662;49.128;8.520;2023-05-09T07:45:23;100439.38;;;23.24;59.30
28428;BME280;15662;49.128;8.520;2023-05-09T07:47:51;100437.78;;;23.32;59.47
28428;BME280;15662;49.128;8.520;2023-05-09T07:50:18;100427.34;;;23.39;59.33
28428;BME280;15662;49.128;8.520;2023-05-09T07:52:46;100426.00;;;23.44;59.21
28428;BME280;15662;49.128;8.520;2023-05-09T07:55:16;100423.44;;;23.54;59.07
28428;BME280;15662;49.128;8.520;2023-05-09T07:57:44;100421.00;;;23.62;58.78
28428;BME280;15662;49.128;8.520;2023-05-09T08:00:14;100419.94;;;23.76;58.71
28428;BME280;15662;49.128;8.520;2023-05-09T08:02:46;100426.47;;;23.85;58.49
28428;BME280;15662;49.128;8.520;2023-05-09T08:05:14;100419.19;;;23.97;58.58
28428;BME280;15662;49.128;8.520;2023-05-09T08:07:48;100414.03;;;24.05;58.09
28428;BME280;15662;49.128;8.520;2023-05-09T08:10:16;100401.44;;;24.15;58.11
28428;BME280;15662;49.128;8.520;2023-05-09T08:12:46;100396.28;;;24.12;57.33
28428;BME280;15662;49.128;8.520;2023-05-09T08:15:15;100398.75;;;24.15;57.24
28428;BME280;15662;49.128;8.520;2023-05-09T08:17:44;100395.53;;;24.21;57.49
28428;BME280;15662;49.128;8.520;2023-05-09T08:20:13;100395.88;;;24.28;57.39
28428;BME280;15662;49.128;8.520;2023-05-09T08:22:43;100394.38;;;24.35;57.21
28428;BME280;15662;49.128;8.520;2023-05-09T08:25:11;100394.53;;;24.44;56.84
28428;BME280;15662;49.128;8.520;2023-05-09T08:27:42;100390.28;;;24.52;57.04
28428;BME280;15662;49.128;8.520;2023-05-09T08:30:12;100385.81;;;24.62;56.43
28428;BME280;15662;49.128;8.520;2023-05-09T08:32:40;100376.78;;;24.73;56.29
28428;BME280;15662;49.128;8.520;2023-05-09T08:35:10;100376.00;;;24.82;56.14
28428;BME280;15662;49.128;8.520;2023-05-09T08:37:38;100372.50;;;24.91;56.08
28428;BME280;15662;49.128;8.520;2023-05-09T08:40:06;100377.75;;;25.04;55.54
28428;BME280;15662;49.128;8.520;2023-05-09T08:42:36;100368.72;;;25.14;55.63
28428;BME280;15662;49.128;8.520;2023-05-09T08:45:12;100358.47;;;25.18;55.06
28428;BME280;15662;49.128;8.520;2023-05-09T08:47:44;100365.81;;;25.27;55.13
28428;BME280;15662;49.128;8.520;2023-05-09T08:50:12;100362.41;;;25.35;54.71
28428;BME280;15662;49.128;8.520;2023-05-09T08:52:43;100364.00;;;25.37;54.74
28428;BME280;15662;49.128;8.520;2023-05-09T08:55:14;100356.44;;;25.41;54.37
28428;BME280;15662;49.128;8.520;2023-05-09T08:57:43;100357.72;;;25.46;54.22
28428;BME280;15662;49.128;8.520;2023-05-09T09:00:12;100346.78;;;25.48;53.75
28428;BME280;15662;49.128;8.520;2023-05-09T09:02:42;100350.47;;;25.47;53.69
28428;BME280;15662;49.128;8.520;2023-05-09T09:05:11;100347.78;;;25.47;53.61
28428;BME280;15662;49.128;8.520;2023-05-09T09:08:03;100347.44;;;25.40;53.29
28428;BME280;15662;49.128;8.520;2023-05-09T09:10:34;100336.28;;;25.34;53.23
28428;BME280;15662;49.128;8.520;2023-05-09T09:13:04;100342.09;;;25.29;53.33
28428;BME280;15662;49.128;8.520;2023-05-09T09:15:36;100339.38;;;25.29;52.96
28428;BME280;15662;49.128;8.520;2023-05-09T09:18:08;100336.94;;;25.26;52.77
28428;BME280;15662;49.128;8.520;2023-05-09T09:20:45;100322.25;;;25.29;52.66
28428;BME280;15662;49.128;8.520;2023-05-09T09:23:19;100307.69;;;25.30;52.52
28428;BME280;15662;49.128;8.520;2023-05-09T09:26:01;100311.13;;;25.32;52.25
28428;BME280;15662;49.128;8.520;2023-05-09T09:28:33;100304.97;;;25.30;52.51
28428;BME280;15662;49.128;8.520;2023-05-09T09:31:01;100302.00;;;25.33;52.47
28428;BME280;15662;49.128;8.520;2023-05-09T09:33:29;100309.75;;;25.37;52.67
28428;BME280;15662;49.128;8.520;2023-05-09T09:35:57;100307.88;;;25.38;52.57
28428;BME280;15662;49.128;8.520;2023-05-09T09:38:26;100303.31;;;25.38;52.06
28428;BME280;15662;49.128;8.520;2023-05-09T09:40:55;100293.47;;;25.37;52.33
28428;BME280;15662;49.128;8.520;2023-05-09T09:43:28;100293.75;;;25.44;52.65
28428;BME280;15662;49.128;8.520;2023-05-09T09:46:00;100290.78;;;25.47;52.36
28428;BME280;15662;49.128;8.520;2023-05-09T09:48:33;100278.75;;;25.40;52.14
28428;BME280;15662;49.128;8.520;2023-05-09T09:51:10;100288.19;;;25.45;52.21
28428;BME280;15662;49.128;8.520;2023-05-09T09:53:39;100279.78;;;25.48;52.60
28428;BME280;15662;49.128;8.520;2023-05-09T09:56:09;100272.50;;;25.49;53.06
28428;BME280;15662;49.128;8.520;2023-05-09T09:58:41;100276.50;;;25.55;53.12
28428;BME280;15662;49.128;8.520;2023-05-09T10:01:12;100277.25;;;25.57;52.73
28428;BME280;15662;49.128;8.520;2023-05-09T10:03:42;100264.53;;;25.57;52.67
28428;BME280;15662;49.128;8.520;2023-05-09T10:06:15;100268.81;;;25.60;52.54
28428;BME280;15662;49.128;8.520;2023-05-09T10:08:45;100262.78;;;25.56;52.51
28428;BME280;15662;49.128;8.520;2023-05-09T10:11:16;100264.38;;;25.59;52.54
28428;BME280;15662;49.128;8.520;2023-05-09T10:13:44;100260.22;;;25.55;52.59
28428;BME280;15662;49.128;8.520;2023-05-09T10:16:14;100254.53;;;25.58;52.12
28428;BME280;15662;49.128;8.520;2023-05-09T10:18:43;100252.94;;;25.55;52.52
28428;BME280;15662;49.128;8.520;2023-05-09T10:21:18;100251.66;;;25.59;52.35
28428;BME280;15662;49.128;8.520;2023-05-09T10:23:48;100246.09;;;25.61;52.49
28428;BME280;15662;49.128;8.520;2023-05-09T10:26:23;100240.41;;;25.64;52.31
28428;BME280;15662;49.128;8.520;2023-05-09T10:28:58;100232.69;;;25.59;52.36
28428;BME280;15662;49.128;8.520;2023-05-09T10:31:31;100224.53;;;25.59;52.48
28428;BME280;15662;49.128;8.520;2023-05-09T10:34:09;100226.09;;;25.52;52.29
28428;BME280;15662;49.128;8.520;2023-05-09T10:36:46;100219.22;;;25.48;52.69
28428;BME280;15662;49.128;8.520;2023-05-09T10:39:17;100211.50;;;25.43;53.17
28428;BME280;15662;49.128;8.520;2023-05-09T10:41:48;100214.81;;;25.47;53.53
28428;BME280;15662;49.128;8.520;2023-05-09T10:44:17;100211.66;;;25.52;54.03
28428;BME280;15662;49.128;8.520;2023-05-09T10:46:49;100206.38;;;25.60;54.13
28428;BME280;15662;49.128;8.520;2023-05-09T10:49:17;100195.97;;;25.65;53.77
28428;BME280;15662;49.128;8.520;2023-05-09T10:51:54;100194.69;;;25.69;53.56
28428;BME280;15662;49.128;8.520;2023-05-09T10:54:29;100202.19;;;25.77;53.08
28428;BME280;15662;49.128;8.520;2023-05-09T10:57:00;100189.75;;;25.84;53.40
28428;BME280;15662;49.128;8.520;2023-05-09T10:59:36;100183.16;;;25.96;53.16
28428;BME280;15662;49.128;8.520;2023-05-09T11:02:13;100176.03;;;26.05;52.68
28428;BME280;15662;49.128;8.520;2023-05-09T11:04:41;100170.88;;;26.11;52.60
28428;BME280;15662;49.128;8.520;2023-05-09T11:12:34;100156.72;;;26.27;51.46
28428;BME280;15662;49.128;8.520;2023-05-09T11:15:25;100153.84;;;26.29;51.51
28428;BME280;15662;49.128;8.520;2023-05-09T11:18:09;100151.97;;;26.29;51.09
28428;BME280;15662;49.128;8.520;2023-05-09T11:20:45;100145.84;;;26.27;51.00
28428;BME280;15662;49.128;8.520;2023-05-09T11:23:19;100143.28;;;26.26;51.09
28428;BME280;15662;49.128;8.520;2023-05-09T11:25:50;100137.69;;;26.27;51.00
28428;BME280;15662;49.128;8.520;2023-05-09T11:28:36;100126.50;;;26.30;50.43
28428;BME280;15662;49.128;8.520;2023-05-09T11:31:17;100124.38;;;26.24;50.36
28428;BME280;15662;49.128;8.520;2023-05-09T11:33:49;100129.72;;;26.16;50.21
28428;BME280;15662;49.128;8.520;2023-05-09T11:36:31;100125.16;;;26.07;50.49
28428;BME280;15662;49.128;8.520;2023-05-09T11:39:09;100128.72;;;26.07;50.20
28428;BME280;15662;49.128;8.520;2023-05-09T11:41:45;100124.56;;;26.03;50.29
28428;BME280;15662;49.128;8.520;2023-05-09T11:44:18;100111.84;;;26.04;50.34
28428;BME280;15662;49.128;8.520;2023-05-09T11:46:48;100111.25;;;26.10;50.46
28428;BME280;15662;49.128;8.520;2023-05-09T11:49:18;100110.13;;;26.12;50.50
28428;BME280;15662;49.128;8.520;2023-05-09T11:51:46;100105.81;;;26.19;50.42
28428;BME280;15662;49.128;8.520;2023-05-09T11:54:15;100097.78;;;26.28;50.36
28428;BME280;15662;49.128;8.520;2023-05-09T11:56:44;100089.03;;;26.34;50.28
28428;BME280;15662;49.128;8.520;2023-05-09T11:59:12;100093.63;;;26.43;50.14
28428;BME280;15662;49.128;8.520;2023-05-09T12:01:44;100089.47;;;26.48;49.84
28428;BME280;15662;49.128;8.520;2023-05-09T12:04:13;100085.59;;;26.51;49.84
28428;BME280;15662;49.128;8.520;2023-05-09T12:06:46;100073.28;;;26.57;49.42
28428;BME280;15662;49.128;8.520;2023-05-09T12:09:15;100063.09;;;26.59;49.66
28428;BME280;15662;49.128;8.520;2023-05-09T12:11:50;100053.75;;;26.71;49.25
28428;BME280;15662;49.128;8.520;2023-05-09T12:14:30;100049.72;;;26.75;49.13
28428;BME280;15662;49.128;8.520;2023-05-09T12:17:02;100050.59;;;26.75;49.52
28428;BME280;15662;49.128;8.520;2023-05-09T12:19:29;100046.97;;;26.85;49.32
28428;BME280;15662;49.128;8.520;2023-05-09T12:22:01;100043.63;;;26.91;49.28
28428;BME280;15662;49.128;8.520;2023-05-09T12:24:34;100031.56;;;26.93;49.23
28428;BME280;15662;49.128;8.520;2023-05-09T12:27:05;100027.84;;;26.94;49.15
28428;BME280;15662;49.128;8.520;2023-05-09T12:29:35;100025.28;;;26.93;49.10
28428;BME280;15662;49.128;8.520;2023-05-09T12:32:03;100020.00;;;26.91;48.91
28428;BME280;15662;49.128;8.520;2023-05-09T12:34:34;100018.75;;;26.86;49.02
28428;BME280;15662;49.128;8.520;2023-05-09T12:37:02;100008.88;;;26.85;48.98
28428;BME280;15662;49.128;8.520;2023-05-09T12:39:31;100017.56;;;26.88;49.03
28428;BME280;15662;49.128;8.520;2023-05-09T12:42:00;100003.69;;;26.91;49.00
28428;BME280;15662;49.128;8.520;2023-05-09T12:44:28;100009.81;;;26.93;48.96
28428;BME280;15662;49.128;8.520;2023-05-09T12:47:01;100005.09;;;26.95;48.77
28428;BME280;15662;49.128;8.520;2023-05-09T12:49:31;99993.09;;;26.88;48.64
28428;BME280;15662;49.128;8.520;2023-05-09T12:51:59;99994.66;;;26.91;48.63
28428;BME280;15662;49.128;8.520;2023-05-09T12:54:33;99992.09;;;26.89;48.74
28428;BME280;15662;49.128;8.520;2023-05-09T12:57:03;99984.41;;;26.85;48.74
28428;BME280;15662;49.128;8.520;2023-05-09T12:59:42;99987.25;;;26.83;48.85
28428;BME280;15662;49.128;8.520;2023-05-09T13:02:10;99983.00;;;26.81;48.98
28428;BME280;15662;49.128;8.520;2023-05-09T13:04:40;99980.28;;;26.81;49.04
28428;BME280;15662;49.128;8.520;2023-05-09T13:07:09;99982.84;;;26.82;48.92
28428;BME280;15662;49.128;8.520;2023-05-09T13:09:53;99976.72;;;26.80;48.79
28428;BME280;15662;49.128;8.520;2023-05-09T13:12:23;99976.63;;;26.72;48.77
28428;BME280;15662;49.128;8.520;2023-05-09T13:14:52;99967.78;;;26.70;48.94
28428;BME280;15662;49.128;8.520;2023-05-09T13:17:21;99961.78;;;26.66;48.97
28428;BME280;15662;49.128;8.520;2023-05-09T13:19:52;99954.59;;;26.47;49.27
28428;BME280;15662;49.128;8.520;2023-05-09T13:22:21;99954.38;;;26.59;49.52
28428;BME280;15662;49.128;8.520;2023-05-09T13:24:56;99955.31;;;26.67;49.41
28428;BME280;15662;49.128;8.520;2023-05-09T13:27:25;99956.41;;;26.74;49.35
28428;BME280;15662;49.128;8.520;2023-05-09T13:29:54;99945.53;;;26.74;49.01